createdAt,value
2023-06-10T00:00:13.715Z,56.70
2023-06-10T00:02:17.925Z,56.84
2023-06-10T00:04:20.085Z,56.90
2023-06-10T00:06:25.401Z,56.89
2023-06-10T00:08:27.543Z,56.50
2023-06-10T00:10:29.542Z,56.71
2023-06-10T00:12:32.345Z,57.04
2023-06-10T00:14:35.047Z,57.23
2023-06-10T00:16:37.414Z,57.29
2023-06-10T00:18:39.977Z,57.16
2023-06-10T00:20:42.051Z,57.10
2023-06-10T00:22:46.992Z,57.47
2023-06-10T00:24:49.640Z,57.36
2023-06-10T00:26:51.957Z,57.28
2023-06-10T00:28:54.041Z,57.39
2023-06-10T00:30:56.018Z,57.65
2023-06-10T00:32:58.106Z,57.32
2023-06-10T00:35:00.160Z,57.33
2023-06-10T00:37:02.369Z,57.15
2023-06-10T00:39:05.738Z,57.37
2023-06-10T00:41:08.206Z,57.06
2023-06-10T00:43:10.453Z,56.96
2023-06-10T00:45:13.012Z,57.03
2023-06-10T00:47:15.229Z,56.85
2023-06-10T00:49:18.043Z,57.15
2023-06-10T00:51:20.021Z,57.24
2023-06-10T00:53:23.018Z,57.26
2023-06-10T00:55:25.806Z,56.88
2023-06-10T00:57:27.926Z,57.04
2023-06-10T00:59:30.085Z,57.02
2023-06-10T01:01:33.485Z,56.94
2023-06-10T01:03:38.231Z,57.00
2023-06-10T01:05:40.576Z,56.47
2023-06-10T01:07:54.731Z,56.25
2023-06-10T01:10:25.295Z,55.97
2023-06-10T01:13:04.163Z,56.01
2023-06-10T01:15:06.882Z,56.09
2023-06-10T01:17:10.945Z,56.26
2023-06-10T01:19:14.177Z,56.11
2023-06-10T01:21:25.600Z,56.19
2023-06-10T01:23:28.382Z,56.50
2023-06-10T01:25:30.923Z,56.26
2023-06-10T01:27:34.724Z,56.41
2023-06-10T01:29:43.716Z,56.34
2023-06-10T01:32:02.964Z,56.37
2023-06-10T01:34:09.335Z,56.61
2023-06-10T01:36:11.369Z,56.56
2023-06-10T01:38:13.958Z,56.73
2023-06-10T01:40:16.102Z,56.85
2023-06-10T01:42:18.100Z,56.89
2023-06-10T01:44:21.824Z,56.99
2023-06-10T01:46:24.050Z,57.28
2023-06-10T01:48:26.056Z,57.17
2023-06-10T01:50:28.097Z,57.11
2023-06-10T01:52:30.182Z,57.00
2023-06-10T01:54:32.463Z,57.00
2023-06-10T01:56:34.526Z,56.81
2023-06-10T01:58:36.594Z,56.58
2023-06-10T02:00:38.647Z,56.38
2023-06-10T02:02:40.881Z,56.37
2023-06-10T02:04:43.008Z,56.19
2023-06-10T02:06:45.050Z,56.51
2023-06-10T02:08:47.083Z,56.59
2023-06-10T02:10:49.084Z,56.82
2023-06-10T02:12:51.117Z,56.68
2023-06-10T02:14:53.147Z,56.78
2023-06-10T02:16:57.610Z,56.82
2023-06-10T02:18:59.974Z,57.04
2023-06-10T02:21:01.993Z,57.06
2023-06-10T02:23:04.530Z,57.11
2023-06-10T02:25:07.225Z,57.35
2023-06-10T02:27:09.548Z,57.54
2023-06-10T02:29:12.170Z,57.30
2023-06-10T02:31:14.677Z,57.72
2023-06-10T02:33:18.781Z,57.76
2023-06-10T02:35:21.058Z,57.74
2023-06-10T02:37:23.158Z,57.84
2023-06-10T02:39:25.206Z,58.10
2023-06-10T02:41:27.543Z,58.19
2023-06-10T02:43:29.588Z,57.95
2023-06-10T02:45:31.519Z,58.04
2023-06-10T02:47:33.530Z,58.00
2023-06-10T02:49:35.652Z,57.79
2023-06-10T02:51:38.093Z,57.48
2023-06-10T02:53:40.030Z,57.69
2023-06-10T02:55:42.172Z,57.68
2023-06-10T02:57:44.212Z,57.91
2023-06-10T02:59:46.256Z,57.89
2023-06-10T03:01:48.343Z,57.99
2023-06-10T03:03:51.651Z,57.94
2023-06-10T03:05:53.818Z,57.98
2023-06-10T03:07:55.928Z,58.14
2023-06-10T03:09:57.957Z,57.97
2023-06-10T03:11:59.987Z,57.86
2023-06-10T03:14:01.986Z,58.28
2023-06-10T03:16:04.634Z,58.02
2023-06-10T03:18:08.116Z,58.27
2023-06-10T03:20:11.434Z,58.41
2023-06-10T03:22:17.573Z,59.05
2023-06-10T03:24:19.712Z,58.75
2023-06-10T03:26:22.761Z,59.19
2023-06-10T03:28:25.057Z,59.54
2023-06-10T03:30:28.678Z,59.68
2023-06-10T03:32:30.937Z,59.93
2023-06-10T03:34:32.970Z,59.80
2023-06-10T03:36:34.980Z,60.03
2023-06-10T03:38:37.789Z,59.77
2023-06-10T03:40:39.810Z,59.76
2023-06-10T03:42:41.898Z,59.72
2023-06-10T03:44:43.979Z,59.91
2023-06-10T03:46:46.758Z,59.81
2023-06-10T03:48:49.661Z,59.58
2023-06-10T03:50:52.072Z,59.67
2023-06-10T03:52:54.050Z,59.51
2023-06-10T03:54:56.007Z,59.43
2023-06-10T03:56:57.944Z,59.13
2023-06-10T03:59:00.190Z,58.73
2023-06-10T04:01:02.198Z,58.30
2023-06-10T04:03:04.274Z,57.66
2023-06-10T04:05:07.598Z,57.43
2023-06-10T04:07:09.945Z,57.19
2023-06-10T04:09:12.591Z,56.71
2023-06-10T04:11:14.548Z,55.91
2023-06-10T04:13:16.530Z,55.94
2023-06-10T04:15:18.604Z,55.41
2023-06-10T04:17:20.782Z,55.37
2023-06-10T04:19:22.804Z,54.81
2023-06-10T04:21:25.881Z,54.50
2023-06-10T04:23:27.964Z,54.14
2023-06-10T04:25:30.063Z,53.83
2023-06-10T04:27:32.075Z,53.45
2023-06-10T04:29:34.087Z,53.03
2023-06-10T04:31:36.119Z,52.50
2023-06-10T04:33:40.536Z,52.07
2023-06-10T04:35:43.466Z,51.90
2023-06-10T04:37:45.793Z,51.95
2023-06-10T04:39:47.875Z,51.52
2023-06-10T04:41:49.922Z,51.21
2023-06-10T04:43:52.503Z,50.97
2023-06-10T04:45:54.431Z,50.85
2023-06-10T04:47:57.190Z,50.43
2023-06-10T04:49:59.425Z,50.01
2023-06-10T04:52:01.559Z,49.94
2023-06-10T04:54:04.987Z,49.86
2023-06-10T04:56:08.806Z,49.34
2023-06-10T04:58:10.783Z,49.26
2023-06-10T05:00:13.402Z,49.01
2023-06-10T05:02:15.673Z,48.84
2023-06-10T05:04:17.828Z,48.53
2023-06-10T05:06:19.907Z,48.13
2023-06-10T05:08:21.896Z,48.09
2023-06-10T05:10:24.063Z,48.16
2023-06-10T05:12:26.106Z,47.79
2023-06-10T05:14:28.659Z,47.72
2023-06-10T05:16:30.713Z,47.35
2023-06-10T05:18:33.197Z,47.39
2023-06-10T05:20:35.288Z,47.33
2023-06-10T05:22:37.244Z,47.08
2023-06-10T05:24:39.521Z,47.43
2023-06-10T05:26:42.334Z,47.20
2023-06-10T05:28:44.526Z,47.07
2023-06-10T05:30:46.572Z,47.25
2023-06-10T05:32:49.581Z,46.89
2023-06-10T05:34:51.673Z,46.85
2023-06-10T05:36:53.635Z,46.88
2023-06-10T05:38:55.766Z,46.91
2023-06-10T05:40:58.233Z,47.20
2023-06-10T05:43:00.221Z,46.97
2023-06-10T05:45:03.516Z,46.79
2023-06-10T05:47:05.855Z,46.81
2023-06-10T05:49:07.916Z,46.49
2023-06-10T05:51:09.987Z,46.60
2023-06-10T05:53:16.292Z,46.63
2023-06-10T05:55:18.503Z,46.19
2023-06-10T05:57:20.624Z,46.59
2023-06-10T05:59:23.962Z,46.56
2023-06-10T06:01:26.215Z,46.87
2023-06-10T06:03:29.910Z,46.65
2023-06-10T06:05:36.084Z,46.40
2023-06-10T06:07:38.135Z,46.64
2023-06-10T06:09:40.217Z,47.02
2023-06-10T06:11:42.360Z,47.11
2023-06-10T06:13:44.416Z,47.10
2023-06-10T06:15:46.610Z,47.22
2023-06-10T06:17:48.668Z,47.65
2023-06-10T06:19:50.702Z,47.76
2023-06-10T06:21:52.684Z,47.58
2023-06-10T06:23:54.873Z,47.55
2023-06-10T06:25:56.990Z,47.91
2023-06-10T06:27:59.080Z,47.65
2023-06-10T06:30:01.218Z,47.65
2023-06-10T06:32:04.292Z,47.48
2023-06-10T06:34:06.358Z,47.37
2023-06-10T06:36:08.415Z,47.53
2023-06-10T06:38:10.541Z,47.43
2023-06-10T06:40:13.148Z,47.30
2023-06-10T06:42:15.167Z,47.24
2023-06-10T06:44:17.142Z,47.07
2023-06-10T06:46:19.190Z,46.70
2023-06-10T06:48:22.018Z,46.68
2023-06-10T06:50:24.234Z,46.26
2023-06-10T06:52:26.346Z,46.02
2023-06-10T06:54:28.288Z,46.29
2023-06-10T06:56:30.317Z,46.17
2023-06-10T06:58:32.346Z,45.78
2023-06-10T07:00:34.325Z,45.40
2023-06-10T07:02:36.729Z,45.06
2023-06-10T07:04:38.742Z,44.74
2023-06-10T07:06:40.780Z,44.33
2023-06-10T07:08:43.121Z,43.88
2023-06-10T07:10:45.209Z,43.68
2023-06-10T07:12:47.187Z,43.42
2023-06-10T07:14:49.173Z,43.38
2023-06-10T07:16:51.290Z,43.32
2023-06-10T07:18:54.012Z,43.21
2023-06-10T07:20:55.967Z,42.73
2023-06-10T07:22:57.965Z,42.64
2023-06-10T07:25:00.005Z,42.62
2023-06-10T07:27:01.954Z,42.35
2023-06-10T07:29:03.966Z,42.58
2023-06-10T07:31:06.149Z,42.95
2023-06-10T07:33:09.064Z,43.00
2023-06-10T07:35:14.237Z,43.10
2023-06-10T07:37:16.273Z,43.09
2023-06-10T07:39:18.329Z,43.66
2023-06-10T07:41:20.721Z,43.39
2023-06-10T07:43:22.660Z,43.68
2023-06-10T07:45:24.815Z,43.48
2023-06-10T07:47:26.869Z,42.73
2023-06-10T07:49:28.891Z,42.06
2023-06-10T07:51:30.926Z,41.90
2023-06-10T07:53:32.892Z,41.25
2023-06-10T07:55:34.881Z,41.42
2023-06-10T07:57:37.703Z,41.34
2023-06-10T07:59:39.632Z,40.97
2023-06-10T08:01:41.708Z,40.56
2023-06-10T08:03:44.241Z,40.44
2023-06-10T08:05:46.540Z,39.62
2023-06-10T08:07:48.638Z,39.31
2023-06-10T08:09:50.587Z,38.95
2023-06-10T08:11:52.751Z,38.83
2023-06-10T08:13:55.273Z,38.92
2023-06-10T08:15:57.343Z,38.52
2023-06-10T08:17:59.356Z,38.27
2023-06-10T08:20:01.972Z,38.18
2023-06-10T08:22:04.216Z,38.18
2023-06-10T08:24:07.358Z,38.05
2023-06-10T08:26:09.459Z,37.56
2023-06-10T08:28:11.534Z,37.57
2023-06-10T08:30:14.407Z,37.37
2023-06-10T08:32:16.460Z,36.62
2023-06-10T08:34:18.681Z,36.20
2023-06-10T08:36:20.816Z,35.94
2023-06-10T08:38:23.896Z,36.36
2023-06-10T08:40:25.984Z,36.20
2023-06-10T08:42:44.239Z,36.37
2023-06-10T08:44:47.442Z,36.21
2023-06-10T08:46:49.535Z,36.20
2023-06-10T08:48:52.391Z,35.47
2023-06-10T08:50:54.555Z,34.70
2023-06-10T08:52:59.450Z,34.75
2023-06-10T08:55:03.651Z,35.20
2023-06-10T08:57:09.449Z,35.21
2023-06-10T08:59:11.552Z,34.97
2023-06-10T09:01:13.780Z,34.54
2023-06-10T09:03:15.934Z,34.08
2023-06-10T09:05:18.006Z,34.30
2023-06-10T09:07:21.052Z,34.48
2023-06-10T09:09:23.769Z,33.62
2023-06-10T09:11:26.160Z,33.70
2023-06-10T09:13:28.147Z,33.78
2023-06-10T09:15:30.239Z,33.76
2023-06-10T09:17:32.417Z,33.61
2023-06-10T09:19:34.459Z,33.28
2023-06-10T09:21:39.360Z,33.84
2023-06-10T09:23:41.417Z,33.49
2023-06-10T09:25:43.463Z,33.41
2023-06-10T09:27:58.015Z,33.95
2023-06-10T09:30:00.255Z,33.98
2023-06-10T09:32:02.309Z,33.29
2023-06-10T09:34:14.590Z,33.07
2023-06-10T09:36:23.920Z,32.71
2023-06-10T09:38:30.899Z,32.92
2023-06-10T09:40:32.847Z,32.53
2023-06-10T09:42:36.462Z,33.02
2023-06-10T09:44:38.488Z,32.37
2023-06-10T09:46:40.525Z,31.61
2023-06-10T09:48:44.888Z,31.58
2023-06-10T09:50:47.001Z,31.60
2023-06-10T09:52:51.732Z,30.90
2023-06-10T09:55:02.789Z,30.78
2023-06-10T09:57:08.917Z,30.39
2023-06-10T09:59:10.893Z,30.47
2023-06-10T10:01:14.253Z,28.53
2023-06-10T10:03:23.888Z,30.02
2023-06-10T10:05:26.190Z,30.53
2023-06-10T10:07:28.267Z,28.82
2023-06-10T10:09:30.294Z,28.95
2023-06-10T10:11:32.311Z,28.21
2023-06-10T10:13:35.396Z,27.82
2023-06-10T10:15:40.168Z,27.94
2023-06-10T10:17:46.500Z,28.34
2023-06-10T10:19:50.194Z,28.50
2023-06-10T10:21:54.819Z,27.56
2023-06-10T10:24:08.865Z,27.34
2023-06-10T10:26:11.380Z,26.44
2023-06-10T10:28:13.725Z,26.68
2023-06-10T10:30:16.102Z,26.74
2023-06-10T10:32:18.217Z,26.77
2023-06-10T10:34:22.861Z,28.00
2023-06-10T10:36:24.895Z,28.51
2023-06-10T10:38:26.836Z,28.18
2023-06-10T10:40:30.457Z,27.31
2023-06-10T10:42:32.430Z,26.90
2023-06-10T10:44:34.543Z,26.37
2023-06-10T10:46:49.565Z,25.65
2023-06-10T10:48:55.530Z,25.59
2023-06-10T10:50:59.054Z,25.28
2023-06-10T10:53:02.633Z,25.46
2023-06-10T10:55:04.916Z,24.95
2023-06-10T10:57:13.716Z,24.93
2023-06-10T10:59:19.196Z,24.40
2023-06-10T11:01:21.288Z,24.96
2023-06-10T11:03:23.792Z,25.51
2023-06-10T11:05:43.015Z,24.57
2023-06-10T11:07:58.085Z,24.04
2023-06-10T11:10:03.370Z,23.59
2023-06-10T11:12:05.927Z,23.26
2023-06-10T11:14:09.915Z,22.87
2023-06-10T11:16:12.910Z,23.40
2023-06-10T11:18:27.712Z,23.48
2023-06-10T11:20:51.620Z,24.17
2023-06-10T11:22:59.865Z,24.17
2023-06-10T11:25:01.873Z,23.35
2023-06-10T11:27:25.526Z,22.63
2023-06-10T11:29:29.816Z,22.89
2023-06-10T11:31:41.980Z,22.21
2023-06-10T11:33:44.045Z,21.76
2023-06-10T11:35:46.056Z,21.21
2023-06-10T11:37:48.427Z,20.81
2023-06-10T11:39:57.401Z,20.70
2023-06-10T11:41:59.475Z,20.88
2023-06-10T11:44:12.345Z,21.64
2023-06-10T11:46:15.472Z,21.29
2023-06-10T11:48:17.529Z,20.23
2023-06-10T11:50:32.278Z,19.39
2023-06-10T11:52:39.076Z,18.81
2023-06-10T11:54:41.180Z,19.29
2023-06-10T11:56:43.255Z,19.40
2023-06-10T11:58:45.192Z,19.84
2023-06-10T12:00:47.774Z,19.26
2023-06-10T12:02:58.800Z,18.73
2023-06-10T12:05:16.516Z,18.56
2023-06-10T12:07:23.434Z,19.02
2023-06-10T12:09:29.747Z,18.86
2023-06-10T12:11:31.960Z,18.98
2023-06-10T12:13:34.156Z,19.58
2023-06-10T12:15:36.267Z,19.54
2023-06-10T12:17:39.349Z,19.96
2023-06-10T12:19:41.793Z,19.53
2023-06-10T12:21:43.870Z,19.47
2023-06-10T12:24:06.803Z,18.14
2023-06-10T12:26:08.857Z,18.07
2023-06-10T12:28:11.649Z,17.99
2023-06-10T12:30:22.697Z,18.27
2023-06-10T12:32:38.878Z,18.70
2023-06-10T12:34:41.534Z,17.77
2023-06-10T12:36:49.865Z,17.44
2023-06-10T12:38:53.767Z,17.70
2023-06-10T12:40:57.444Z,17.86
2023-06-10T12:43:00.246Z,17.76
2023-06-10T12:45:02.367Z,17.78
2023-06-10T12:47:11.200Z,17.23
2023-06-10T12:49:22.497Z,17.03
2023-06-10T12:51:24.464Z,16.24
2023-06-10T12:53:27.875Z,15.11
2023-06-10T12:55:29.880Z,15.54
2023-06-10T12:57:32.634Z,15.70
2023-06-10T12:59:34.761Z,15.14
2023-06-10T13:01:38.311Z,14.43
2023-06-10T13:03:41.506Z,14.64
2023-06-10T13:05:44.335Z,14.88
2023-06-10T13:07:46.286Z,14.93
2023-06-10T13:09:50.381Z,16.25
2023-06-10T13:11:53.845Z,15.03
2023-06-10T13:13:55.878Z,16.22
2023-06-10T13:15:57.835Z,15.99
2023-06-10T13:17:59.824Z,16.38
2023-06-10T13:20:02.022Z,17.15
2023-06-10T13:22:04.207Z,17.70
2023-06-10T13:24:06.367Z,16.75
2023-06-10T13:26:08.433Z,16.41
2023-06-10T13:28:10.522Z,17.11
2023-06-10T13:30:13.453Z,17.39
2023-06-10T13:32:15.499Z,17.94
2023-06-10T13:34:17.809Z,18.26
2023-06-10T13:36:19.842Z,18.18
2023-06-10T13:38:21.878Z,18.18
2023-06-10T13:40:23.877Z,17.97
2023-06-10T13:42:27.698Z,17.73
2023-06-10T13:44:32.113Z,17.80
2023-06-10T13:46:34.082Z,17.52
2023-06-10T13:48:36.602Z,17.56
2023-06-10T13:50:39.119Z,17.50
2023-06-10T13:52:41.112Z,17.81
2023-06-10T13:54:43.136Z,17.92
2023-06-10T13:56:45.097Z,17.44
2023-06-10T13:58:47.207Z,18.08
2023-06-10T14:00:49.284Z,17.05
2023-06-10T14:02:51.348Z,16.84
2023-06-10T14:04:53.367Z,16.54
2023-06-10T14:06:55.374Z,15.96
2023-06-10T14:08:57.469Z,16.67
2023-06-10T14:10:59.874Z,16.20
2023-06-10T14:13:01.918Z,15.41
2023-06-10T14:15:04.256Z,15.31
2023-06-10T14:17:06.624Z,16.11
2023-06-10T14:19:08.693Z,16.59
2023-06-10T14:21:10.940Z,16.17
2023-06-10T14:23:12.969Z,15.61
2023-06-10T14:25:14.936Z,15.87
2023-06-10T14:27:16.900Z,15.77
2023-06-10T14:29:20.513Z,16.03
2023-06-10T14:31:22.651Z,16.33
2023-06-10T14:33:24.705Z,16.52
2023-06-10T14:35:26.810Z,15.98
2023-06-10T14:37:28.918Z,15.80
2023-06-10T14:39:30.968Z,16.14
2023-06-10T14:41:33.084Z,16.04
2023-06-10T14:43:35.155Z,15.34
2023-06-10T14:45:38.379Z,15.92
2023-06-10T14:47:40.500Z,16.01
2023-06-10T14:49:43.328Z,15.75
2023-06-10T14:51:45.907Z,16.52
2023-06-10T14:53:48.005Z,16.24
2023-06-10T14:55:50.043Z,15.56
2023-06-10T14:57:52.138Z,15.69
2023-06-10T14:59:54.231Z,16.65
2023-06-10T15:01:56.304Z,17.18
2023-06-10T15:03:58.318Z,17.29
2023-06-10T15:06:01.728Z,16.70
2023-06-10T15:08:03.714Z,17.07
2023-06-10T15:10:06.358Z,16.92
2023-06-10T15:12:08.691Z,16.90
2023-06-10T15:14:11.170Z,16.36
2023-06-10T15:16:13.247Z,16.17
2023-06-10T15:18:15.431Z,16.07
2023-06-10T15:20:17.477Z,16.21
2023-06-10T15:22:19.847Z,16.66
2023-06-10T15:24:22.015Z,16.77
2023-06-10T15:26:24.104Z,16.01
2023-06-10T15:28:28.204Z,15.58
2023-06-10T15:30:30.912Z,15.86
2023-06-10T15:32:32.972Z,16.29
2023-06-10T15:34:34.996Z,15.67
2023-06-10T15:36:37.737Z,15.64
2023-06-10T15:38:39.689Z,16.07
2023-06-10T15:40:44.794Z,15.23
2023-06-10T15:42:46.886Z,15.11
2023-06-10T15:44:49.070Z,14.97
2023-06-10T15:46:51.491Z,15.09
2023-06-10T15:48:54.699Z,15.09
2023-06-10T15:50:56.707Z,15.50
2023-06-10T15:52:58.814Z,15.42
2023-06-10T15:55:00.736Z,15.54
2023-06-10T15:57:04.270Z,15.72
2023-06-10T15:59:06.410Z,15.56
2023-06-10T16:01:10.318Z,15.20
2023-06-10T16:03:12.584Z,15.10
2023-06-10T16:05:14.666Z,15.46
2023-06-10T16:07:16.620Z,15.62
2023-06-10T16:09:18.618Z,15.58
2023-06-10T16:11:20.803Z,16.09
2023-06-10T16:13:22.852Z,15.88
2023-06-10T16:15:24.822Z,16.02
2023-06-10T16:17:27.069Z,16.50
2023-06-10T16:19:29.454Z,16.09
2023-06-10T16:21:32.060Z,16.61
2023-06-10T16:23:34.234Z,16.76
2023-06-10T16:25:36.368Z,16.76
2023-06-10T16:27:38.327Z,16.55
2023-06-10T16:29:40.267Z,16.05
2023-06-10T16:31:42.236Z,16.32
2023-06-10T16:33:44.300Z,16.54
2023-06-10T16:35:46.301Z,16.65
2023-06-10T16:37:48.282Z,17.13
2023-06-10T16:39:50.223Z,17.77
2023-06-10T16:41:52.229Z,19.32
2023-06-10T16:43:54.402Z,20.94
2023-06-10T16:45:58.282Z,22.22
2023-06-10T16:48:00.511Z,23.91
2023-06-10T16:50:02.785Z,24.21
2023-06-10T16:52:06.656Z,24.29
2023-06-10T16:54:08.949Z,24.07
2023-06-10T16:56:11.197Z,23.92
2023-06-10T16:58:13.274Z,24.63
2023-06-10T17:00:16.512Z,25.01
2023-06-10T17:02:19.068Z,25.25
2023-06-10T17:04:21.138Z,26.06
2023-06-10T17:06:23.352Z,26.91
2023-06-10T17:08:25.797Z,26.86
2023-06-10T17:10:27.888Z,27.49
2023-06-10T17:12:29.842Z,27.26
2023-06-10T17:14:31.963Z,27.15
2023-06-10T17:16:34.098Z,27.66
2023-06-10T17:18:36.216Z,27.75
2023-06-10T17:20:38.381Z,27.35
2023-06-10T17:22:40.590Z,27.35
2023-06-10T17:24:43.009Z,27.77
2023-06-10T17:26:45.061Z,27.82
2023-06-10T17:28:47.023Z,27.91
2023-06-10T17:30:49.058Z,28.16
2023-06-10T17:32:52.158Z,28.31
2023-06-10T17:34:54.172Z,28.38
2023-06-10T17:36:56.119Z,28.31
2023-06-10T17:38:58.089Z,28.33
2023-06-10T17:41:00.153Z,28.57
2023-06-10T17:43:02.195Z,29.03
2023-06-10T17:45:04.304Z,29.09
2023-06-10T17:47:06.608Z,28.96
2023-06-10T17:49:10.561Z,29.63
2023-06-10T17:51:12.651Z,29.69
2023-06-10T17:53:14.688Z,29.43
2023-06-10T17:55:16.724Z,29.68
2023-06-10T17:57:18.713Z,29.70
2023-06-10T17:59:20.672Z,29.77
2023-06-10T18:01:22.704Z,29.96
2023-06-10T18:03:27.765Z,30.09
2023-06-10T18:05:30.058Z,30.25
2023-06-10T18:07:32.655Z,30.20
2023-06-10T18:09:34.717Z,30.01
2023-06-10T18:11:36.713Z,30.02
2023-06-10T18:13:38.791Z,30.42
2023-06-10T18:15:40.972Z,30.21
2023-06-10T18:17:42.956Z,30.51
2023-06-10T18:19:44.968Z,31.12
2023-06-10T18:21:46.994Z,31.79
2023-06-10T18:23:49.134Z,31.41
2023-06-10T18:25:51.309Z,32.06
2023-06-10T18:27:53.346Z,31.99
2023-06-10T18:29:55.450Z,31.98
2023-06-10T18:31:57.593Z,32.25
2023-06-10T18:33:59.648Z,32.53
2023-06-10T18:36:01.637Z,32.31
2023-06-10T18:38:03.712Z,33.16
2023-06-10T18:40:09.797Z,32.76
2023-06-10T18:42:13.035Z,32.77
2023-06-10T18:44:15.064Z,32.96
2023-06-10T18:46:17.188Z,33.12
2023-06-10T18:48:19.361Z,33.59
2023-06-10T18:50:21.674Z,33.68
2023-06-10T18:52:23.737Z,33.58
2023-06-10T18:54:26.165Z,33.60
2023-06-10T18:56:28.165Z,34.17
2023-06-10T18:58:36.790Z,34.60
2023-06-10T19:00:38.962Z,34.70
2023-06-10T19:02:41.101Z,35.18
2023-06-10T19:04:43.289Z,35.43
2023-06-10T19:06:45.435Z,35.81
2023-06-10T19:08:47.695Z,35.76
2023-06-10T19:10:49.829Z,35.55
2023-06-10T19:12:51.826Z,36.26
2023-06-10T19:14:54.011Z,36.27
2023-06-10T19:16:56.313Z,36.36
2023-06-10T19:18:58.321Z,37.24
2023-06-10T19:21:00.556Z,37.23
2023-06-10T19:23:03.971Z,36.82
2023-06-10T19:25:07.567Z,37.27
2023-06-10T19:27:09.687Z,38.09
2023-06-10T19:29:11.706Z,38.00
2023-06-10T19:31:13.939Z,38.33
2023-06-10T19:33:16.093Z,38.23
2023-06-10T19:35:18.188Z,38.27
2023-06-10T19:37:20.261Z,38.30
2023-06-10T19:39:22.245Z,38.41
2023-06-10T19:41:24.942Z,38.58
2023-06-10T19:43:26.933Z,38.79
2023-06-10T19:45:28.974Z,39.21
2023-06-10T19:47:31.145Z,39.51
2023-06-10T19:49:33.262Z,39.82
2023-06-10T19:51:35.378Z,40.08
2023-06-10T19:53:37.446Z,40.24
2023-06-10T19:55:39.457Z,40.46
2023-06-10T19:57:41.565Z,40.87
2023-06-10T19:59:43.599Z,41.35
2023-06-10T20:01:45.775Z,41.59
2023-06-10T20:03:47.897Z,41.71
2023-06-10T20:05:49.930Z,41.99
2023-06-10T20:07:51.975Z,42.08
2023-06-10T20:09:54.030Z,42.05
2023-06-10T20:11:56.091Z,42.43
2023-06-10T20:13:58.061Z,42.40
2023-06-10T20:16:00.219Z,42.73
2023-06-10T20:18:02.302Z,42.83
2023-06-10T20:20:05.033Z,43.00
2023-06-10T20:22:07.020Z,42.88
2023-06-10T20:24:09.586Z,42.56
2023-06-10T20:26:11.807Z,43.00
2023-06-10T20:28:13.901Z,43.27
2023-06-10T20:30:16.251Z,43.45
2023-06-10T20:32:18.455Z,43.74
2023-06-10T20:34:20.753Z,43.99
2023-06-10T20:36:23.122Z,44.38
2023-06-10T20:38:25.216Z,44.32
2023-06-10T20:40:27.172Z,44.00
2023-06-10T20:42:29.343Z,44.21
2023-06-10T20:44:32.227Z,44.64
2023-06-10T20:46:34.294Z,44.46
2023-06-10T20:48:36.405Z,44.58
2023-06-10T20:50:38.473Z,44.60
2023-06-10T20:52:40.566Z,44.53
2023-06-10T20:54:42.859Z,44.85
2023-06-10T20:56:45.866Z,45.09
2023-06-10T20:58:47.949Z,45.05
2023-06-10T21:00:50.008Z,44.95
2023-06-10T21:02:52.042Z,44.91
2023-06-10T21:04:55.714Z,45.36
2023-06-10T21:06:57.690Z,45.74
2023-06-10T21:08:59.686Z,45.76
2023-06-10T21:11:01.737Z,45.14
2023-06-10T21:13:03.716Z,45.46
2023-06-10T21:15:07.222Z,45.92
2023-06-10T21:17:09.481Z,45.83
2023-06-10T21:19:12.346Z,45.49
2023-06-10T21:21:14.381Z,45.64
2023-06-10T21:23:16.471Z,46.15
2023-06-10T21:25:18.623Z,46.07
2023-06-10T21:27:21.238Z,45.58
2023-06-10T21:29:23.929Z,45.63
2023-06-10T21:31:26.364Z,45.75
2023-06-10T21:33:28.744Z,45.56
2023-06-10T21:35:30.850Z,45.46
2023-06-10T21:37:32.943Z,45.74
2023-06-10T21:39:35.031Z,45.58
2023-06-10T21:41:37.031Z,45.42
2023-06-10T21:43:39.112Z,45.35
2023-06-10T21:45:41.150Z,45.29
2023-06-10T21:47:43.292Z,45.54
2023-06-10T21:49:45.301Z,45.53
2023-06-10T21:51:47.229Z,45.57
2023-06-10T21:53:49.253Z,45.34
2023-06-10T21:55:51.383Z,45.28
2023-06-10T21:57:53.470Z,45.38
2023-06-10T21:59:55.712Z,45.38
2023-06-10T22:01:57.749Z,45.48
2023-06-10T22:03:59.859Z,45.30
2023-06-10T22:06:03.133Z,45.69
2023-06-10T22:08:05.291Z,45.33
2023-06-10T22:10:07.778Z,45.23
2023-06-10T22:12:10.321Z,45.71
2023-06-10T22:14:12.372Z,45.53
2023-06-10T22:16:14.444Z,45.27
2023-06-10T22:18:16.510Z,45.38
2023-06-10T22:20:18.600Z,45.63
2023-06-10T22:22:21.000Z,45.67
2023-06-10T22:24:23.060Z,45.77
2023-06-10T22:26:33.695Z,45.81
2023-06-10T22:28:45.928Z,45.88
2023-06-10T22:30:47.941Z,45.84
2023-06-10T22:32:50.084Z,45.88
2023-06-10T22:34:52.174Z,45.96
2023-06-10T22:36:54.233Z,45.93
2023-06-10T22:38:56.266Z,45.92
2023-06-10T22:40:58.298Z,45.87
2023-06-10T22:43:00.879Z,45.83
2023-06-10T22:45:02.856Z,45.92
2023-06-10T22:47:05.175Z,45.77
2023-06-10T22:49:07.209Z,45.98
2023-06-10T22:51:09.181Z,45.96
2023-06-10T22:53:11.426Z,45.97
2023-06-10T22:55:13.597Z,45.87
2023-06-10T22:57:15.624Z,45.82
2023-06-10T22:59:17.672Z,46.42
2023-06-10T23:01:19.723Z,46.43
2023-06-10T23:03:21.997Z,46.47
2023-06-10T23:05:24.120Z,46.36
2023-06-10T23:07:26.362Z,46.37
2023-06-10T23:09:28.350Z,46.32
2023-06-10T23:11:30.489Z,46.05
2023-06-10T23:13:32.454Z,45.87
2023-06-10T23:15:34.505Z,45.87
2023-06-10T23:17:36.587Z,46.07
2023-06-10T23:19:42.114Z,46.49
2023-06-10T23:21:49.849Z,46.31
2023-06-10T23:23:53.658Z,46.37
2023-06-10T23:25:55.759Z,46.34
2023-06-10T23:27:57.912Z,46.36
2023-06-10T23:30:00.878Z,46.26
2023-06-10T23:32:03.185Z,46.35
2023-06-10T23:34:05.328Z,46.17
2023-06-10T23:36:07.682Z,45.87
2023-06-10T23:38:09.675Z,46.09
2023-06-10T23:40:12.371Z,45.73
2023-06-10T23:42:14.412Z,46.02
2023-06-10T23:44:16.453Z,46.14
2023-06-10T23:46:18.518Z,45.98
2023-06-10T23:48:20.574Z,46.02
2023-06-10T23:50:22.572Z,45.81
2023-06-10T23:52:24.669Z,45.85
2023-06-10T23:54:27.820Z,46.07
2023-06-10T23:56:30.538Z,45.97
2023-06-10T23:58:32.472Z,46.14
